Time;durP1;ratioP1;P1;durP2;ratioP2;P2;SDS_P1;SDS_P2;PMS_P1;PMS_P2;Temp;Humidity;BMP_temperature;BMP_pressure;BME280_temperature;BME280_humidity;BME280_pressure;Samples;Min_cycle;Max_cycle;Signal;HPM_P1;HPM_P2
2021/12/02 00:02:08;;;;;;;;;;;;;;;;;;5076382;28;20403;-63
2021/12/02 00:04:35;;;;;;;;;;;;;;;;;;5079767;28;19947;-65
2021/12/02 00:07:01;;;;;;;;;;;;;;;;;;5079025;28;19923;-63
2021/12/02 00:09:26;;;;;;;;;;;;;;;;;;5084169;28;19912;-64
2021/12/02 00:11:51;;;;;;;;;;;;;;;;;;5081761;28;19916;-64
2021/12/02 00:14:22;;;;;;;;;;;;;;;;;;5077457;28;20423;-65
2021/12/02 00:22:05;;;;;;;;;;;;;;;;;;5078332;28;19981;-64
2021/12/02 00:24:31;;;;;;;;;;;;;;;;;;5083492;28;19912;-64
2021/12/02 00:26:56;;;;;;;;;;;;;;;;;;5080907;28;19939;-64
2021/12/02 00:29:21;;;;;;;;;;;;;;;;;;5087053;28;19920;-64
2021/12/02 00:31:46;;;;;;;;;;;;;;;;;;5079612;28;19916;-64
2021/12/02 00:34:11;;;;;;;;;;;;;;;;;;5077994;28;19974;-64
2021/12/02 00:36:36;;;;;;;;;;;;;;;;;;5078268;28;19951;-63
2021/12/02 00:39:02;;;;;;;;;;;;;;;;;;5084961;28;19917;-64
2021/12/02 00:41:28;;;;;;;;;;;;;;;;;;5082536;28;19912;-64
2021/12/02 00:43:53;;;;;;;;;;;;;;;;;;5082118;28;20333;-63
2021/12/02 00:46:18;;;;;;;;;;;;;;;;;;5087757;28;20318;-63
2021/12/02 00:48:43;;;;;;;;;;;;;;;;;;5086282;28;19958;-63
2021/12/02 00:51:08;;;;;;;;;;;;;;;;;;5080181;28;19912;-63
2021/12/02 00:53:33;;;;;;;;;;;;;;;;;;5086240;28;19916;-63
2021/12/02 00:55:58;;;;;;;;;;;;;;;;;;5084901;28;19953;-63
2021/12/02 00:58:23;;;;;;;;;;;;;;;;;;5082952;28;19920;-63
2021/12/02 01:00:50;;;;;;;;;;;;;;;;;;5081067;28;20024;-63
2021/12/02 01:03:15;;;;;;;;;;;;;;;;;;5081030;28;19912;-64
2021/12/02 01:05:40;;;;;;;;;;;;;;;;;;5086868;28;19912;-63
2021/12/02 01:08:05;;;;;;;;;;;;;;;;;;5085724;28;19919;-63
2021/12/02 01:10:30;;;;;;;;;;;;;;;;;;5084758;28;20365;-63
2021/12/02 01:12:55;;;;;;;;;;;;;;;;;;5078749;28;19916;-63
2021/12/02 01:15:20;;;;;;;;;;;;;;;;;;5083667;28;19913;-63
2021/12/02 01:17:45;;;;;;;;;;;;;;;;;;5085836;28;19946;-63
2021/12/02 01:20:10;;;;;;;;;;;;;;;;;;5086853;28;20358;-63
2021/12/02 01:22:36;;;;;;;;;;;;;;;;;;5082918;28;19918;-63
2021/12/02 01:25:01;;;;;;;;;;;;;;;;;;5082400;28;20031;-64
2021/12/02 01:27:26;;;;;;;;;;;;;;;;;;5085491;28;19919;-63
2021/12/02 01:29:51;;;;;;;;;;;;;;;;;;5080741;28;19920;-63
2021/12/02 01:32:16;;;;;;;;;;;;;;;;;;5088473;28;19916;-63
2021/12/02 01:34:41;;;;;;;;;;;;;;;;;;5086782;28;20355;-63
2021/12/02 01:37:06;;;;;;;;;;;;;;;;;;5087426;28;19916;-63
2021/12/02 01:39:31;;;;;;;;;;;;;;;;;;5083265;28;19913;-63
2021/12/02 01:41:56;;;;;;;;;;;;;;;;;;5081632;28;19951;-63
2021/12/02 01:44:21;;;;;;;;;;;;;;;;;;5084628;28;19995;-62
2021/12/02 01:46:46;;;;;;;;;;;;;;;;;;5085690;28;19920;-63
2021/12/02 01:49:11;;;;;;;;;;;;;;;;;;5080321;28;19919;-63
2021/12/02 01:51:37;;;;;;;;;;;;;;;;;;5092549;28;19924;-63
2021/12/02 01:54:02;;;;;;;;;;;;;;;;;;5079588;28;19912;-63
2021/12/02 01:56:27;;;;;;;;;;;;;;;;;;5083223;28;19969;-62
2021/12/02 01:58:52;;;;;;;;;;;;;;;;;;5085271;28;19919;-63
2021/12/02 02:01:17;;;;;;;;;;;;;;;;;;5085269;28;19961;-63
2021/12/02 02:03:42;;;;;;;;;;;;;;;;;;5081497;28;20011;-63
2021/12/02 02:06:07;;;;;;;;;;;;;;;;;;5083643;28;19926;-63
2021/12/02 02:08:32;;;;;;;;;;;;;;;;;;5081332;28;19920;-63
2021/12/02 02:10:57;;;;;;;;;;;;;;;;;;5083538;28;19912;-63
2021/12/02 02:13:22;;;;;;;;;;;;;;;;;;5080680;28;20012;-64
2021/12/02 02:15:51;;;;;;;;;;;;;;;;;;5088264;28;19920;-63
2021/12/02 02:18:24;;;;;;;;;;;;;;;;;;5082555;28;19919;-63
2021/12/02 02:21:03;;;;;;;;;;;;;;;;;;5082696;28;20002;-63
2021/12/02 02:23:29;;;;;;;;;;;;;;;;;;5085858;28;19999;-63
2021/12/02 02:25:54;;;;;;;;;;;;;;;;;;5083212;28;20290;-64
2021/12/02 02:28:20;;;;;;;;;;;;;;;;;;5088763;28;20419;-63
2021/12/02 02:30:45;;;;;;;;;;;;;;;;;;5086508;28;20051;-63
2021/12/02 02:33:11;;;;;;;;;;;;;;;;;;5082877;28;20283;-64
2021/12/02 02:35:36;;;;;;;;;;;;;;;;;;5077445;28;19912;-63
2021/12/02 02:38:01;;;;;;;;;;;;;;;;;;5088189;28;19924;-63
2021/12/02 02:40:26;;;;;;;;;;;;;;;;;;5078943;28;19971;-63
2021/12/02 02:42:57;;;;;;;;;;;;;;;;;;5078472;28;20276;-62
2021/12/02 02:45:22;;;;;;;;;;;;;;;;;;5083370;28;19916;-64
2021/12/02 02:47:47;;;;;;;;;;;;;;;;;;5080707;28;20283;-64
2021/12/02 02:50:13;;;;;;;;;;;;;;;;;;5083423;28;19915;-63
2021/12/02 02:52:38;;;;;;;;;;;;;;;;;;5080975;28;19916;-63
2021/12/02 02:55:03;;;;;;;;;;;;;;;;;;5086243;28;19928;-63
2021/12/02 02:57:30;;;;;;;;;;;;;;;;;;5078306;28;19920;-63
2021/12/02 03:00:03;;;;;;;;;;;;;;;;;;5080166;28;20364;-63
2021/12/02 03:07:32;;;;;;;;;;;;;;;;;;5083600;28;19955;-63
2021/12/02 03:10:21;;;;;;;;;;;;;;;;;;5083761;28;20358;-63
2021/12/02 03:12:59;;;;;;;;;;;;;;;;;;5084604;28;20411;-62
2021/12/02 03:17:49;;;;;;;;;;;;;;;;;;5080782;28;19947;-63
2021/12/02 03:20:14;;;;;;;;;;;;;;;;;;5073979;28;20007;-63
2021/12/02 03:22:39;;;;;;;;;;;;;;;;;;5083351;28;19920;-63
2021/12/02 03:25:04;;;;;;;;;;;;;;;;;;5084919;28;19916;-63
2021/12/02 03:27:29;;;;;;;;;;;;;;;;;;5085052;28;19919;-63
2021/12/02 03:29:54;;;;;;;;;;;;;;;;;;5087711;28;20392;-63
2021/12/02 03:32:19;;;;;;;;;;;;;;;;;;5080203;28;19916;-62
2021/12/02 03:34:45;;;;;;;;;;;;;;;;;;5081345;28;19912;-63
2021/12/02 03:37:10;;;;;;;;;;;;;;;;;;5079379;28;20011;-63
2021/12/02 03:39:35;;;;;;;;;;;;;;;;;;5083537;28;19948;-63
2021/12/02 03:42:00;;;;;;;;;;;;;;;;;;5079382;28;19931;-64
2021/12/02 03:44:25;;;;;;;;;;;;;;;;;;5080977;28;19913;-63
2021/12/02 03:46:50;;;;;;;;;;;;;;;;;;5077943;28;20347;-63
2021/12/02 03:49:15;;;;;;;;;;;;;;;;;;5086498;28;20601;-63
2021/12/02 03:51:40;;;;;;;;;;;;;;;;;;5081635;28;20072;-63
2021/12/02 03:54:05;;;;;;;;;;;;;;;;;;5081620;28;19943;-64
2021/12/02 03:56:30;;;;;;;;;;;;;;;;;;5080253;28;19913;-63
2021/12/02 03:58:56;;;;;;;;;;;;;;;;;;5077916;28;19920;-63
2021/12/02 04:01:21;;;;;;;;;;;;;;;;;;5075071;28;20008;-63
2021/12/02 04:03:46;;;;;;;;;;;;;;;;;;5085729;28;20011;-63
2021/12/02 04:06:11;;;;;;;;;;;;;;;;;;5081098;28;19966;-63
2021/12/02 04:13:52;;;;;;;;;;;;;;;;;;5078136;28;19995;-62
2021/12/02 04:16:18;;;;;;;;;;;;;;;;;;5085235;28;19920;-62
2021/12/02 04:18:44;;;;;;;;;;;;;;;;;;5084159;28;19943;-62
2021/12/02 04:21:09;;;;;;;;;;;;;;;;;;5078479;28;19956;-62
2021/12/02 04:23:34;;;;;;;;;;;;;;;;;;5087580;28;19950;-63
2021/12/02 04:25:59;;;;;;;;;;;;;;;;;;5079610;28;20337;-62
2021/12/02 04:28:24;;;;;;;;;;;;;;;;;;5082413;28;19920;-64
2021/12/02 04:30:49;;;;;;;;;;;;;;;;;;5088581;28;19920;-62
2021/12/02 04:33:14;;;;;;;;;;;;;;;;;;5077823;28;20376;-62
2021/12/02 04:35:39;;;;;;;;;;;;;;;;;;5077174;28;19959;-63
2021/12/02 04:38:04;;;;;;;;;;;;;;;;;;5078393;28;19917;-63
2021/12/02 04:40:29;;;;;;;;;;;;;;;;;;5086052;28;19913;-62
2021/12/02 04:42:54;;;;;;;;;;;;;;;;;;5078798;28;19912;-63
2021/12/02 04:45:19;;;;;;;;;;;;;;;;;;5079415;28;20337;-62
2021/12/02 04:47:44;;;;;;;;;;;;;;;;;;5082545;28;19920;-62
2021/12/02 04:50:10;;;;;;;;;;;;;;;;;;5083580;28;19998;-62
2021/12/02 04:52:35;;;;;;;;;;;;;;;;;;5080584;28;19978;-63
2021/12/02 04:55:00;;;;;;;;;;;;;;;;;;5089141;28;20364;-64
2021/12/02 04:57:25;;;;;;;;;;;;;;;;;;5078577;28;19912;-63
2021/12/02 04:59:50;;;;;;;;;;;;;;;;;;5077676;28;19965;-63
2021/12/02 05:02:15;;;;;;;;;;;;;;;;;;5076615;28;19959;-63
2021/12/02 05:04:40;;;;;;;;;;;;;;;;;;5081017;28;20011;-63
2021/12/02 05:07:05;;;;;;;;;;;;;;;;;;5086004;28;19923;-64
2021/12/02 05:09:30;;;;;;;;;;;;;;;;;;5082338;28;19918;-63
2021/12/02 05:11:56;;;;;;;;;;;;;;;;;;5078857;28;20477;-63
2021/12/02 05:14:21;;;;;;;;;;;;;;;;;;5074644;28;19916;-63
2021/12/02 05:16:46;;;;;;;;;;;;;;;;;;5079249;28;19912;-64
2021/12/02 05:19:11;;;;;;;;;;;;;;;;;;5075532;28;20407;-63
2021/12/02 05:21:36;;;;;;;;;;;;;;;;;;5082181;28;19958;-63
2021/12/02 05:24:01;;;;;;;;;;;;;;;;;;5079508;28;19955;-62
2021/12/02 05:26:26;;;;;;;;;;;;;;;;;;5081789;28;19916;-64
2021/12/02 05:28:51;;;;;;;;;;;;;;;;;;5078965;28;19913;-63
2021/12/02 05:31:16;;;;;;;;;;;;;;;;;;5082259;28;19927;-63
2021/12/02 05:33:41;;;;;;;;;;;;;;;;;;5085096;28;19912;-63
2021/12/02 05:36:06;;;;;;;;;;;;;;;;;;5084593;28;19934;-64
2021/12/02 05:38:31;;;;;;;;;;;;;;;;;;5085499;28;19995;-63
2021/12/02 05:40:57;;;;;;;;;;;;;;;;;;5087159;28;19912;-61
2021/12/02 05:43:22;;;;;;;;;;;;;;;;;;5084165;28;19912;-60
2021/12/02 05:45:47;;;;;;;;;;;;;;;;;;5089462;28;20003;-60
2021/12/02 05:48:12;;;;;;;;;;;;;;;;;;5084187;28;19919;-61
2021/12/02 05:50:37;;;;;;;;;;;;;;;;;;5084183;28;19920;-60
2021/12/02 05:53:02;;;;;;;;;;;;;;;;;;5082207;28;20521;-63
2021/12/02 05:55:27;;;;;;;;;;;;;;;;;;5100730;28;19912;-61
2021/12/02 05:57:52;;;;;;;;;;;;;;;;;;5083723;28;19939;-59
2021/12/02 06:00:17;;;;;;;;;;;;;;;;;;5082135;28;19916;-59
2021/12/02 06:02:42;;;;;;;;;;;;;;;;;;5083805;28;19920;-60
2021/12/02 06:05:08;;;;;;;;;;;;;;;;;;5083850;28;19957;-60
2021/12/02 06:07:33;;;;;;;;;;;;;;;;;;5086948;28;19916;-60
2021/12/02 06:09:58;;;;;;;;;;;;;;;;;;5084528;28;19962;-61
2021/12/02 06:12:23;;;;;;;;;;;;;;;;;;5082866;28;19924;-60
2021/12/02 06:14:48;;;;;;;;;;;;;;;;;;5084968;28;19916;-61
2021/12/02 06:17:13;;;;;;;;;;;;;;;;;;5086377;28;19948;-60
2021/12/02 06:19:38;;;;;;;;;;;;;;;;;;5084399;28;20011;-61
2021/12/02 06:22:03;;;;;;;;;;;;;;;;;;5081563;28;20423;-61
2021/12/02 06:24:42;;;;;;;;;;;;;;;;;;5083355;28;19912;-61
2021/12/02 06:27:07;;;;;;;;;;;;;;;;;;5082395;28;20256;-61
2021/12/02 06:29:32;;;;;;;;;;;;;;;;;;5080308;28;20388;-61
2021/12/02 06:31:57;;;;;;;;;;;;;;;;;;5086119;28;19931;-61
2021/12/02 06:34:22;;;;;;;;;;;;;;;;;;5086427;28;20097;-61
2021/12/02 06:36:47;;;;;;;;;;;;;;;;;;5087875;28;20311;-60
2021/12/02 06:39:12;;;;;;;;;;;;;;;;;;5083445;28;19912;-60
2021/12/02 06:41:37;;;;;;;;;;;;;;;;;;5085170;28;19955;-61
2021/12/02 06:44:03;;;;;;;;;;;;;;;;;;5084439;28;19969;-61
2021/12/02 06:46:29;;;;;;;;;;;;;;;;;;5083518;28;19952;-61
2021/12/02 06:48:54;;;;;;;;;;;;;;;;;;5085047;28;19927;-62
2021/12/02 06:51:19;;;;;;;;;;;;;;;;;;5082071;28;19957;-61
2021/12/02 06:53:44;;;;;;;;;;;;;;;;;;5080107;28;19951;-61
2021/12/02 06:56:10;;;;;;;;;;;;;;;;;;5086739;28;19923;-61
2021/12/02 06:58:35;;;;;;;;;;;;;;;;;;5083409;28;19955;-61
2021/12/02 07:01:00;;;;;;;;;;;;;;;;;;5079797;28;19913;-61
2021/12/02 07:03:25;;;;;;;;;;;;;;;;;;5089915;28;19912;-61
2021/12/02 07:05:50;;;;;;;;;;;;;;;;;;5084973;28;19912;-61
2021/12/02 07:08:15;;;;;;;;;;;;;;;;;;5085549;28;19913;-61
2021/12/02 07:10:40;;;;;;;;;;;;;;;;;;5092023;28;19948;-61
2021/12/02 07:13:06;;;;;;;;;;;;;;;;;;5083430;28;19920;-61
2021/12/02 07:15:33;;;;;;;;;;;;;;;;;;5090246;28;19995;-61
2021/12/02 07:18:00;;;;;;;;;;;;;;;;;;5084022;28;19920;-61
2021/12/02 07:20:25;;;;;;;;;;;;;;;;;;5085260;28;19969;-61
2021/12/02 07:22:50;;;;;;;;;;;;;;;;;;5084188;28;20375;-61
2021/12/02 07:25:15;;;;;;;;;;;;;;;;;;5078540;28;19965;-61
2021/12/02 07:27:41;;;;;;;;;;;;;;;;;;5078669;28;19920;-61
2021/12/02 07:30:06;;;;;;;;;;;;;;;;;;5083256;28;19920;-61
2021/12/02 07:32:31;;;;;;;;;;;;;;;;;;5067685;28;19931;-61
2021/12/02 07:34:58;;;;;;;;;;;;;;;;;;5052945;28;21152;-61
2021/12/02 07:37:23;;;;;;;;;;;;;;;;;;5078812;28;19920;-60
2021/12/02 07:39:48;;;;;;;;;;;;;;;;;;5070510;28;19927;-61
2021/12/02 07:42:13;;;;;;;;;;;;;;;;;;5074050;28;20265;-61
2021/12/02 07:44:39;;;;;;;;;;;;;;;;;;5080883;28;19920;-61
2021/12/02 07:47:04;;;;;;;;;;;;;;;;;;5079809;28;20286;-61
2021/12/02 07:49:29;;;;;;;;;;;;;;;;;;5081668;28;20478;-63
2021/12/02 07:51:54;;;;;;;;;;;;;;;;;;5080229;28;19955;-61
2021/12/02 07:54:19;;;;;;;;;;;;;;;;;;5081483;28;19919;-61
2021/12/02 07:56:44;;;;;;;;;;;;;;;;;;5080546;28;20338;-62
2021/12/02 07:59:09;;;;;;;;;;;;;;;;;;5082327;28;19920;-62
2021/12/02 08:01:35;;;;;;;;;;;;;;;;;;5081944;28;19920;-61
2021/12/02 08:04:00;;;;;;;;;;;;;;;;;;5081753;28;19973;-60
2021/12/02 08:06:25;;;;;;;;;;;;;;;;;;5079623;28;19912;-60
2021/12/02 08:08:50;;;;;;;;;;;;;;;;;;5079784;28;19981;-61
2021/12/02 08:11:16;;;;;;;;;;;;;;;;;;5081187;28;19966;-61
2021/12/02 08:13:41;;;;;;;;;;;;;;;;;;5080068;28;20210;-61
2021/12/02 08:16:07;;;;;;;;;;;;;;;;;;5078405;28;19917;-61
2021/12/02 08:18:32;;;;;;;;;;;;;;;;;;5080117;28;19913;-61
2021/12/02 08:20:58;;;;;;;;;;;;;;;;;;5080702;28;21609;-61
2021/12/02 08:23:23;;;;;;;;;;;;;;;;;;5079279;28;19966;-61
2021/12/02 08:25:48;;;;;;;;;;;;;;;;;;5080243;28;19920;-61
2021/12/02 08:28:13;;;;;;;;;;;;;;;;;;5079085;28;19919;-60
2021/12/02 08:30:39;;;;;;;;;;;;;;;;;;5077977;28;19920;-60
2021/12/02 08:33:05;;;;;;;;;;;;;;;;;;5080042;28;19969;-61
2021/12/02 08:35:30;;;;;;;;;;;;;;;;;;5078928;28;19920;-61
2021/12/02 08:38:00;;;;;;;;;;;;;;;;;;5080923;28;20326;-61
2021/12/02 08:40:33;;;;;;;;;;;;;;;;;;5084066;28;20298;-61
2021/12/02 08:42:59;;;;;;;;;;;;;;;;;;5078566;28;20007;-62
2021/12/02 08:45:24;;;;;;;;;;;;;;;;;;5081615;28;19920;-62
2021/12/02 08:47:49;;;;;;;;;;;;;;;;;;5079385;28;19920;-62
2021/12/02 08:50:14;;;;;;;;;;;;;;;;;;5078607;28;19992;-61
2021/12/02 08:52:40;;;;;;;;;;;;;;;;;;5078947;28;21802;-61
2021/12/02 08:55:05;;;;;;;;;;;;;;;;;;5080479;28;19951;-62
2021/12/02 08:57:30;;;;;;;;;;;;;;;;;;5079315;28;19927;-61
2021/12/02 08:59:55;;;;;;;;;;;;;;;;;;5080435;28;19912;-61
2021/12/02 09:02:21;;;;;;;;;;;;;;;;;;5084123;28;19920;-61
2021/12/02 09:04:46;;;;;;;;;;;;;;;;;;5085106;28;19912;-61
2021/12/02 09:07:11;;;;;;;;;;;;;;;;;;5084655;28;19920;-61
2021/12/02 09:09:36;;;;;;;;;;;;;;;;;;5084407;28;19927;-61
2021/12/02 09:12:01;;;;;;;;;;;;;;;;;;5087590;28;20501;-61
2021/12/02 09:14:26;;;;;;;;;;;;;;;;;;5082676;28;19993;-60
2021/12/02 09:16:51;;;;;;;;;;;;;;;;;;5083496;28;19921;-61
2021/12/02 09:19:17;;;;;;;;;;;;;;;;;;5085526;28;20003;-60
2021/12/02 09:21:42;;;;;;;;;;;;;;;;;;5084193;28;19916;-60
2021/12/02 09:24:07;;;;;;;;;;;;;;;;;;5084216;28;19920;-60
2021/12/02 09:26:32;;;;;;;;;;;;;;;;;;5082062;28;19912;-61
2021/12/02 09:28:58;;;;;;;;;;;;;;;;;;5080771;28;19920;-60
2021/12/02 09:31:23;;;;;;;;;;;;;;;;;;5086660;28;20416;-61
2021/12/02 09:33:48;;;;;;;;;;;;;;;;;;5082789;28;19920;-61
2021/12/02 09:36:13;;;;;;;;;;;;;;;;;;5083559;28;19913;-61
2021/12/02 09:38:38;;;;;;;;;;;;;;;;;;5084127;28;19920;-61
2021/12/02 09:41:04;;;;;;;;;;;;;;;;;;5080410;28;19912;-61
2021/12/02 09:43:29;;;;;;;;;;;;;;;;;;5084388;28;20040;-61
2021/12/02 09:45:54;;;;;;;;;;;;;;;;;;5082567;28;20376;-61
2021/12/02 09:48:19;;;;;;;;;;;;;;;;;;5081502;28;19912;-61
2021/12/02 09:50:55;;;;;;;;;;;;;;;;;;5085870;28;19919;-62
2021/12/02 09:53:24;;;;;;;;;;;;;;;;;;5082790;28;19923;-62
2021/12/02 09:56:14;;;;;;;;;;;;;;;;;;5082178;28;19912;-62
2021/12/02 09:58:35;;;;;;;;;;;;;;;;;;5082464;28;19912;-62
2021/12/02 10:01:23;;;;;;;;;;;;;;;;;;5083969;28;19924;-62
2021/12/02 10:03:51;;;;;;;;;;;;;;;;;;5082005;28;20038;-63
2021/12/02 10:06:17;;;;;;;;;;;;;;;;;;5086437;28;19972;-63
2021/12/02 10:08:53;;;;;;;;;;;;;;;;;;5082021;28;19931;-63
2021/12/02 10:11:18;;;;;;;;;;;;;;;;;;5082270;28;19923;-63
2021/12/02 10:13:47;;;;;;;;;;;;;;;;;;5082057;28;19912;-62
2021/12/02 10:16:31;;;;;;;;;;;;;;;;;;5080929;28;19912;-61
2021/12/02 10:19:05;;;;;;;;;;;;;;;;;;5083480;28;19957;-61
2021/12/02 10:21:36;;;;;;;;;;;;;;;;;;5081886;28;19912;-61
2021/12/02 10:24:01;;;;;;;;;;;;;;;;;;5080088;28;19919;-61
2021/12/02 10:26:26;;;;;;;;;;;;;;;;;;5082398;28;19920;-61
2021/12/02 10:28:52;;;;;;;;;;;;;;;;;;5080392;28;19920;-61
2021/12/02 10:31:17;;;;;;;;;;;;;;;;;;5081449;28;20390;-61
2021/12/02 10:33:43;;;;;;;;;;;;;;;;;;5080261;28;20399;-61
2021/12/02 10:36:08;;;;;;;;;;;;;;;;;;5079407;28;19923;-61
2021/12/02 10:38:33;;;;;;;;;;;;;;;;;;5082481;28;20446;-61
2021/12/02 10:40:59;;;;;;;;;;;;;;;;;;5083104;28;19939;-61
2021/12/02 10:43:24;;;;;;;;;;;;;;;;;;5080208;28;20287;-61
2021/12/02 10:45:49;;;;;;;;;;;;;;;;;;5082322;28;19927;-61
2021/12/02 10:48:14;;;;;;;;;;;;;;;;;;5080591;28;19912;-61
2021/12/02 10:50:40;;;;;;;;;;;;;;;;;;5079045;28;20008;-61
2021/12/02 10:53:05;;;;;;;;;;;;;;;;;;5082136;28;19920;-62
2021/12/02 10:55:31;;;;;;;;;;;;;;;;;;5078938;28;20424;-59
2021/12/02 10:57:57;;;;;;;;;;;;;;;;;;5080433;28;19912;-60
2021/12/02 11:00:22;;;;;;;;;;;;;;;;;;5020720;28;19927;-62
2021/12/02 11:02:48;;;;;;;;;;;;;;;;;;5079079;28;19920;-61
2021/12/02 11:05:29;;;;;;;;;;;;;;;;;;5084062;28;19916;-62
2021/12/02 11:07:54;;;;;;;;;;;;;;;;;;5081554;28;20021;-61
2021/12/02 11:10:19;;;;;;;;;;;;;;;;;;5081264;28;20351;-61
2021/12/02 11:12:44;;;;;;;;;;;;;;;;;;5084846;28;20403;-61
2021/12/02 11:15:09;;;;;;;;;;;;;;;;;;5076533;28;19920;-61
2021/12/02 11:17:34;;;;;;;;;;;;;;;;;;5082631;28;20345;-62
2021/12/02 11:19:59;;;;;;;;;;;;;;;;;;5080505;28;19912;-62
2021/12/02 11:22:24;;;;;;;;;;;;;;;;;;5080657;28;19927;-63
2021/12/02 11:24:49;;;;;;;;;;;;;;;;;;5083164;28;19916;-62
2021/12/02 11:27:14;;;;;;;;;;;;;;;;;;5080174;28;21297;-62
2021/12/02 11:29:40;;;;;;;;;;;;;;;;;;5079311;28;19923;-63
2021/12/02 11:32:05;;;;;;;;;;;;;;;;;;5082187;28;19943;-63
2021/12/02 11:34:30;;;;;;;;;;;;;;;;;;5082235;28;19912;-63
2021/12/02 11:36:55;;;;;;;;;;;;;;;;;;5079675;28;20360;-63
2021/12/02 11:39:21;;;;;;;;;;;;;;;;;;5080153;28;19922;-62
2021/12/02 11:41:46;;;;;;;;;;;;;;;;;;5077355;28;20039;-62
2021/12/02 11:44:12;;;;;;;;;;;;;;;;;;5083287;28;20061;-61
2021/12/02 11:46:37;;;;;;;;;;;;;;;;;;5079806;28;19927;-61
2021/12/02 11:49:02;;;;;;;;;;;;;;;;;;5081203;28;19920;-60
2021/12/02 11:51:27;;;;;;;;;;;;;;;;;;5045151;28;20308;-61
2021/12/02 11:53:52;;;;;;;;;;;;;;;;;;5079301;28;19920;-61
2021/12/02 11:56:17;;;;;;;;;;;;;;;;;;5080395;28;19912;-62
2021/12/02 11:58:42;;;;;;;;;;;;;;;;;;5077936;28;20422;-62
2021/12/02 12:01:09;;;;;;;;;;;;;;;;;;5079775;28;19977;-62
2021/12/02 12:03:34;;;;;;;;;;;;;;;;;;5081489;28;20009;-62
2021/12/02 12:05:59;;;;;;;;;;;;;;;;;;5079999;28;19920;-62
2021/12/02 12:08:24;;;;;;;;;;;;;;;;;;5081977;28;19927;-62
2021/12/02 12:10:49;;;;;;;;;;;;;;;;;;5082038;28;19920;-62
2021/12/02 12:13:14;;;;;;;;;;;;;;;;;;5080312;28;19967;-62
2021/12/02 12:15:39;;;;;;;;;;;;;;;;;;5081548;28;19920;-62
2021/12/02 12:18:04;;;;;;;;;;;;;;;;;;5081477;28;19912;-62
2021/12/02 12:20:29;;;;;;;;;;;;;;;;;;5080890;28;19920;-62
2021/12/02 12:22:54;;;;;;;;;;;;;;;;;;5080714;28;19912;-62
2021/12/02 12:25:19;;;;;;;;;;;;;;;;;;5080599;28;19920;-62
2021/12/02 12:27:44;;;;;;;;;;;;;;;;;;5080416;28;20003;-62
2021/12/02 12:30:11;;;;;;;;;;;;;;;;;;5072221;28;19920;-61
2021/12/02 12:35:13;;;;;;;;;;;;;;;;;;5074829;28;19916;-62
2021/12/02 12:40:07;;;;;;;;;;;;;;;;;;5073930;28;19920;-62
2021/12/02 12:42:32;;;;;;;;;;;;;;;;;;5072948;28;20264;-61
2021/12/02 12:44:58;;;;;;;;;;;;;;;;;;5066824;28;19971;-61
2021/12/02 12:47:23;;;;;;;;;;;;;;;;;;5076730;28;19948;-62
2021/12/02 12:49:48;;;;;;;;;;;;;;;;;;5073739;28;19946;-62
2021/12/02 12:52:13;;;;;;;;;;;;;;;;;;5069541;28;19939;-62
2021/12/02 12:54:40;;;;;;;;;;;;;;;;;;5078743;28;19916;-61
2021/12/02 12:57:05;;;;;;;;;;;;;;;;;;5067726;28;19955;-61
2021/12/02 12:59:30;;;;;;;;;;;;;;;;;;5073354;28;19967;-61
2021/12/02 13:01:55;;;;;;;;;;;;;;;;;;5073562;28;20031;-61
2021/12/02 13:04:23;;;;;;;;;;;;;;;;;;5070813;28;19920;-61
2021/12/02 13:06:48;;;;;;;;;;;;;;;;;;5076025;28;19991;-61
2021/12/02 13:09:14;;;;;;;;;;;;;;;;;;5076522;28;20783;-61
2021/12/02 13:11:39;;;;;;;;;;;;;;;;;;5070295;28;20459;-61
2021/12/02 13:14:04;;;;;;;;;;;;;;;;;;5072642;28;19931;-62
2021/12/02 13:16:29;;;;;;;;;;;;;;;;;;5067914;28;19927;-62
2021/12/02 13:18:54;;;;;;;;;;;;;;;;;;5068123;28;20082;-61
2021/12/02 13:21:20;;;;;;;;;;;;;;;;;;5075265;28;19966;-61
2021/12/02 13:23:45;;;;;;;;;;;;;;;;;;5071919;28;19920;-62
2021/12/02 13:26:10;;;;;;;;;;;;;;;;;;5076194;28;19928;-62
2021/12/02 13:28:35;;;;;;;;;;;;;;;;;;5057066;28;20393;-62
2021/12/02 13:31:00;;;;;;;;;;;;;;;;;;5088698;28;19928;-61
2021/12/02 13:33:25;;;;;;;;;;;;;;;;;;5094374;28;19924;-61
2021/12/02 13:35:50;;;;;;;;;;;;;;;;;;5086800;28;20329;-61
2021/12/02 13:38:16;;;;;;;;;;;;;;;;;;5093348;28;19912;-62
2021/12/02 13:40:41;;;;;;;;;;;;;;;;;;5092710;28;19916;-62
2021/12/02 13:43:06;;;;;;;;;;;;;;;;;;5089024;28;19917;-62
2021/12/02 13:45:31;;;;;;;;;;;;;;;;;;5074199;28;20406;-62
2021/12/02 13:47:56;;;;;;;;;;;;;;;;;;5086455;28;19938;-62
2021/12/02 13:50:23;;;;;;;;;;;;;;;;;;5085846;28;19916;-62
2021/12/02 13:52:53;;;;;;;;;;;;;;;;;;5090718;28;19927;-61
2021/12/02 13:55:21;;;;;;;;;;;;;;;;;;5080280;28;19912;-61
2021/12/02 13:57:48;;;;;;;;;;;;;;;;;;5088936;28;19920;-61
2021/12/02 14:00:14;;;;;;;;;;;;;;;;;;5092021;28;20420;-61
2021/12/02 14:02:39;;;;;;;;;;;;;;;;;;5081818;28;20378;-61
2021/12/02 14:05:05;;;;;;;;;;;;;;;;;;5086131;28;19916;-61
2021/12/02 14:07:30;;;;;;;;;;;;;;;;;;5085015;28;19920;-61
2021/12/02 14:09:55;;;;;;;;;;;;;;;;;;5085582;28;20368;-61
2021/12/02 14:12:21;;;;;;;;;;;;;;;;;;5086773;28;19922;-61
2021/12/02 14:14:46;;;;;;;;;;;;;;;;;;5081910;28;19916;-61
2021/12/02 14:17:11;;;;;;;;;;;;;;;;;;5088908;28;19918;-62
2021/12/02 14:19:36;;;;;;;;;;;;;;;;;;5088961;28;19918;-62
2021/12/02 14:22:01;;;;;;;;;;;;;;;;;;5086954;28;19947;-62
2021/12/02 14:24:26;;;;;;;;;;;;;;;;;;5080944;28;19912;-61
2021/12/02 14:26:51;;;;;;;;;;;;;;;;;;5082925;28;19925;-61
2021/12/02 14:29:17;;;;;;;;;;;;;;;;;;5083095;28;20014;-62
2021/12/02 14:31:42;;;;;;;;;;;;;;;;;;5081162;28;19916;-62
2021/12/02 14:34:08;;;;;;;;;;;;;;;;;;5078664;28;19923;-62
2021/12/02 14:36:33;;;;;;;;;;;;;;;;;;5079647;28;20225;-62
2021/12/02 14:38:58;;;;;;;;;;;;;;;;;;5081103;28;19912;-62
2021/12/02 14:41:23;;;;;;;;;;;;;;;;;;5092096;28;19931;-62
2021/12/02 14:43:48;;;;;;;;;;;;;;;;;;5085513;28;19912;-62
2021/12/02 14:46:13;;;;;;;;;;;;;;;;;;5084973;28;19964;-62
2021/12/02 14:48:38;;;;;;;;;;;;;;;;;;5084927;28;19922;-62
2021/12/02 14:51:03;;;;;;;;;;;;;;;;;;5067850;28;19966;-62
2021/12/02 14:53:29;;;;;;;;;;;;;;;;;;5083796;28;19916;-62
2021/12/02 14:55:54;;;;;;;;;;;;;;;;;;5081394;28;19927;-61
2021/12/02 14:58:19;;;;;;;;;;;;;;;;;;5082771;28;19921;-62
2021/12/02 15:00:44;;;;;;;;;;;;;;;;;;5082006;28;20021;-62
2021/12/02 15:03:09;;;;;;;;;;;;;;;;;;5076973;28;19927;-62
2021/12/02 15:05:34;;;;;;;;;;;;;;;;;;5069884;28;19920;-62
2021/12/02 15:07:59;;;;;;;;;;;;;;;;;;5064817;28;20264;-63
2021/12/02 15:10:24;;;;;;;;;;;;;;;;;;5078330;28;19928;-61
2021/12/02 15:12:50;;;;;;;;;;;;;;;;;;5074509;28;20329;-61
2021/12/02 15:15:15;;;;;;;;;;;;;;;;;;5078423;28;19919;-62
2021/12/02 15:17:40;;;;;;;;;;;;;;;;;;5081187;28;19953;-62
2021/12/02 15:20:05;;;;;;;;;;;;;;;;;;5076975;28;19927;-63
2021/12/02 15:22:30;;;;;;;;;;;;;;;;;;5079533;28;20312;-64
2021/12/02 15:24:56;;;;;;;;;;;;;;;;;;5077149;28;19936;-62
2021/12/02 15:27:21;;;;;;;;;;;;;;;;;;5077203;28;19927;-62
2021/12/02 15:29:46;;;;;;;;;;;;;;;;;;5077237;28;19951;-64
2021/12/02 15:32:11;;;;;;;;;;;;;;;;;;5062343;28;19966;-63
2021/12/02 15:34:36;;;;;;;;;;;;;;;;;;5078634;28;19965;-62
2021/12/02 15:37:01;;;;;;;;;;;;;;;;;;5077436;28;19921;-63
2021/12/02 15:39:26;;;;;;;;;;;;;;;;;;5080915;28;20382;-64
2021/12/02 15:41:52;;;;;;;;;;;;;;;;;;5078023;28;19920;-64
2021/12/02 15:44:18;;;;;;;;;;;;;;;;;;5077393;28;20263;-64
2021/12/02 15:46:43;;;;;;;;;;;;;;;;;;5076022;28;20328;-64
2021/12/02 15:49:10;;;;;;;;;;;;;;;;;;5077454;28;20008;-64
2021/12/02 15:51:36;;;;;;;;;;;;;;;;;;5079783;28;19923;-64
2021/12/02 15:54:01;;;;;;;;;;;;;;;;;;5077024;28;19916;-63
2021/12/02 15:56:26;;;;;;;;;;;;;;;;;;5078737;28;19916;-63
2021/12/02 15:58:52;;;;;;;;;;;;;;;;;;5078115;28;19983;-65
2021/12/02 16:01:20;;;;;;;;;;;;;;;;;;5078150;28;19912;-64
2021/12/02 16:03:48;;;;;;;;;;;;;;;;;;5083144;28;19920;-64
2021/12/02 16:08:44;;;;;;;;;;;;;;;;;;5082630;28;19920;-64
2021/12/02 16:11:20;;;;;;;;;;;;;;;;;;5084298;28;20367;-64
2021/12/02 16:13:45;;;;;;;;;;;;;;;;;;5081068;28;20260;-64
2021/12/02 16:16:10;;;;;;;;;;;;;;;;;;5080172;28;20395;-65
2021/12/02 16:18:35;;;;;;;;;;;;;;;;;;5085589;28;19920;-64
2021/12/02 16:21:02;;;;;;;;;;;;;;;;;;5068921;28;19920;-64
2021/12/02 16:23:27;;;;;;;;;;;;;;;;;;5081388;28;20307;-64
2021/12/02 16:25:52;;;;;;;;;;;;;;;;;;5079956;28;20264;-64
2021/12/02 16:28:18;;;;;;;;;;;;;;;;;;5081628;28;19912;-62
2021/12/02 16:30:44;;;;;;;;;;;;;;;;;;5082454;28;19963;-64
2021/12/02 16:33:09;;;;;;;;;;;;;;;;;;5063075;28;19960;-64
2021/12/02 16:35:34;;;;;;;;;;;;;;;;;;5078713;28;19951;-64
2021/12/02 16:37:59;;;;;;;;;;;;;;;;;;5084060;28;19954;-64
2021/12/02 16:40:27;;;;;;;;;;;;;;;;;;5081412;28;19919;-67
2021/12/02 16:42:52;;;;;;;;;;;;;;;;;;5082282;28;20261;-68
2021/12/02 16:45:17;;;;;;;;;;;;;;;;;;5085496;28;19916;-67
2021/12/02 16:47:42;;;;;;;;;;;;;;;;;;5087269;28;19920;-62
2021/12/02 16:50:07;;;;;;;;;;;;;;;;;;5083799;28;20321;-60
2021/12/02 16:52:33;;;;;;;;;;;;;;;;;;5081225;28;19924;-61
2021/12/02 16:54:58;;;;;;;;;;;;;;;;;;5081309;28;19912;-61
2021/12/02 16:57:23;;;;;;;;;;;;;;;;;;5079102;28;20017;-61
2021/12/02 16:59:48;;;;;;;;;;;;;;;;;;5083302;28;19954;-60
2021/12/02 17:02:13;;;;;;;;;;;;;;;;;;5086835;28;19919;-61